sensor_id;sensor_type;location;lat;lon;timestamp;temperature;humidity
27759;DHT22;15148;48.972;12.794;2023-08-30T00:00:00;13.20;99.90
27759;DHT22;15148;48.972;12.794;2023-08-30T00:05:03;13.30;99.90
27759;DHT22;15148;48.972;12.794;2023-08-30T00:10:07;13.30;99.90
27759;DHT22;15148;48.972;12.794;2023-08-30T00:15:09;13.20;99.90
27759;DHT22;15148;48.972;12.794;2023-08-30T00:20:11;13.20;99.90
27759;DHT22;15148;48.972;12.794;2023-08-30T00:25:13;13.20;99.90
27759;DHT22;15148;48.972;12.794;2023-08-30T00:30:15;13.20;99.90
27759;DHT22;15148;48.972;12.794;2023-08-30T00:35:17;13.20;99.90
27759;DHT22;15148;48.972;12.794;2023-08-30T00:40:23;13.20;99.90
27759;DHT22;15148;48.972;12.794;2023-08-30T00:45:27;13.20;99.90
27759;DHT22;15148;48.972;12.794;2023-08-30T00:50:30;13.20;99.90
27759;DHT22;15148;48.972;12.794;2023-08-30T00:55:35;13.20;99.90
27759;DHT22;15148;48.972;12.794;2023-08-30T01:00:39;13.20;99.90
27759;DHT22;15148;48.972;12.794;2023-08-30T01:05:44;13.20;99.90
27759;DHT22;15148;48.972;12.794;2023-08-30T01:10:58;13.20;99.90
27759;DHT22;15148;48.972;12.794;2023-08-30T01:16:02;13.10;99.90
27759;DHT22;15148;48.972;12.794;2023-08-30T01:21:08;13.10;99.90
27759;DHT22;15148;48.972;12.794;2023-08-30T01:26:20;13.10;99.90
27759;DHT22;15148;48.972;12.794;2023-08-30T01:31:27;13.00;99.90
27759;DHT22;15148;48.972;12.794;2023-08-30T01:36:31;13.00;99.90
27759;DHT22;15148;48.972;12.794;2023-08-30T01:41:36;13.00;99.90
27759;DHT22;15148;48.972;12.794;2023-08-30T01:46:39;13.00;99.90
27759;DHT22;15148;48.972;12.794;2023-08-30T01:51:41;13.00;99.90
27759;DHT22;15148;48.972;12.794;2023-08-30T01:56:43;13.00;99.90
27759;DHT22;15148;48.972;12.794;2023-08-30T02:01:46;12.90;99.90
27759;DHT22;15148;48.972;12.794;2023-08-30T02:06:59;12.90;99.90
27759;DHT22;15148;48.972;12.794;2023-08-30T02:12:04;12.90;99.90
27759;DHT22;15148;48.972;12.794;2023-08-30T02:17:09;12.80;99.90
27759;DHT22;15148;48.972;12.794;2023-08-30T02:22:11;12.90;99.90
27759;DHT22;15148;48.972;12.794;2023-08-30T02:27:15;12.90;99.90
27759;DHT22;15148;48.972;12.794;2023-08-30T02:32:17;12.90;99.90
27759;DHT22;15148;48.972;12.794;2023-08-30T02:37:22;12.90;99.90
27759;DHT22;15148;48.972;12.794;2023-08-30T02:42:24;12.90;99.90
27759;DHT22;15148;48.972;12.794;2023-08-30T02:47:28;12.90;99.90
27759;DHT22;15148;48.972;12.794;2023-08-30T02:52:31;12.90;99.90
27759;DHT22;15148;48.972;12.794;2023-08-30T02:57:33;12.90;99.90
27759;DHT22;15148;48.972;12.794;2023-08-30T03:02:35;12.80;99.90
27759;DHT22;15148;48.972;12.794;2023-08-30T03:07:38;12.80;99.90
27759;DHT22;15148;48.972;12.794;2023-08-30T03:12:40;12.80;99.90
27759;DHT22;15148;48.972;12.794;2023-08-30T03:17:42;12.70;99.90
27759;DHT22;15148;48.972;12.794;2023-08-30T03:22:44;12.70;99.90
27759;DHT22;15148;48.972;12.794;2023-08-30T03:27:49;12.70;99.90
27759;DHT22;15148;48.972;12.794;2023-08-30T03:32:51;12.60;99.90
27759;DHT22;15148;48.972;12.794;2023-08-30T03:37:53;12.70;99.90
27759;DHT22;15148;48.972;12.794;2023-08-30T03:42:55;12.80;99.90
27759;DHT22;15148;48.972;12.794;2023-08-30T03:47:57;12.70;99.90
27759;DHT22;15148;48.972;12.794;2023-08-30T03:53:01;12.70;99.90
27759;DHT22;15148;48.972;12.794;2023-08-30T03:58:03;12.60;99.90
27759;DHT22;15148;48.972;12.794;2023-08-30T04:03:09;12.60;99.90
27759;DHT22;15148;48.972;12.794;2023-08-30T04:08:11;12.60;99.90
27759;DHT22;15148;48.972;12.794;2023-08-30T04:13:13;12.60;99.90
27759;DHT22;15148;48.972;12.794;2023-08-30T04:18:16;12.70;99.90
27759;DHT22;15148;48.972;12.794;2023-08-30T04:23:18;12.70;99.90
27759;DHT22;15148;48.972;12.794;2023-08-30T04:28:21;12.70;99.90
27759;DHT22;15148;48.972;12.794;2023-08-30T04:33:23;12.70;99.90
27759;DHT22;15148;48.972;12.794;2023-08-30T04:38:26;12.70;99.90
27759;DHT22;15148;48.972;12.794;2023-08-30T04:43:28;12.70;99.90
27759;DHT22;15148;48.972;12.794;2023-08-30T04:48:31;12.70;99.90
27759;DHT22;15148;48.972;12.794;2023-08-30T04:53:33;12.70;99.90
27759;DHT22;15148;48.972;12.794;2023-08-30T04:58:35;12.70;99.90
27759;DHT22;15148;48.972;12.794;2023-08-30T05:03:37;12.70;99.90
27759;DHT22;15148;48.972;12.794;2023-08-30T05:08:42;12.70;99.90
27759;DHT22;15148;48.972;12.794;2023-08-30T05:13:44;12.70;99.90
27759;DHT22;15148;48.972;12.794;2023-08-30T05:18:46;12.70;99.90
27759;DHT22;15148;48.972;12.794;2023-08-30T05:23:49;12.80;99.90
27759;DHT22;15148;48.972;12.794;2023-08-30T05:28:51;12.80;99.90
27759;DHT22;15148;48.972;12.794;2023-08-30T05:33:53;12.80;99.90
27759;DHT22;15148;48.972;12.794;2023-08-30T05:39:18;12.90;99.90
27759;DHT22;15148;48.972;12.794;2023-08-30T05:44:24;12.90;99.90
27759;DHT22;15148;48.972;12.794;2023-08-30T05:49:27;12.90;99.90
27759;DHT22;15148;48.972;12.794;2023-08-30T05:54:29;13.00;99.90
27759;DHT22;15148;48.972;12.794;2023-08-30T05:59:33;13.00;99.90
27759;DHT22;15148;48.972;12.794;2023-08-30T06:04:36;13.10;99.90
27759;DHT22;15148;48.972;12.794;2023-08-30T06:09:38;13.20;99.90
27759;DHT22;15148;48.972;12.794;2023-08-30T06:14:43;13.30;99.90
27759;DHT22;15148;48.972;12.794;2023-08-30T06:19:51;13.40;99.90
27759;DHT22;15148;48.972;12.794;2023-08-30T06:24:53;13.50;99.90
27759;DHT22;15148;48.972;12.794;2023-08-30T06:29:55;13.60;99.90
27759;DHT22;15148;48.972;12.794;2023-08-30T06:34:57;13.70;99.90
27759;DHT22;15148;48.972;12.794;2023-08-30T06:40:01;13.80;99.90
27759;DHT22;15148;48.972;12.794;2023-08-30T06:45:05;13.90;99.90
27759;DHT22;15148;48.972;12.794;2023-08-30T06:50:07;14.00;99.90
27759;DHT22;15148;48.972;12.794;2023-08-30T06:55:11;14.00;99.90
27759;DHT22;15148;48.972;12.794;2023-08-30T07:00:13;14.00;99.90
27759;DHT22;15148;48.972;12.794;2023-08-30T07:05:16;14.00;99.90
27759;DHT22;15148;48.972;12.794;2023-08-30T07:10:18;14.00;99.90
27759;DHT22;15148;48.972;12.794;2023-08-30T07:15:19;14.00;99.90
27759;DHT22;15148;48.972;12.794;2023-08-30T07:20:21;14.00;99.90
27759;DHT22;15148;48.972;12.794;2023-08-30T07:25:23;14.10;99.90
27759;DHT22;15148;48.972;12.794;2023-08-30T07:30:26;14.10;99.90
27759;DHT22;15148;48.972;12.794;2023-08-30T07:35:27;14.30;99.90
27759;DHT22;15148;48.972;12.794;2023-08-30T07:40:29;14.50;99.90
27759;DHT22;15148;48.972;12.794;2023-08-30T07:45:32;14.70;99.90
27759;DHT22;15148;48.972;12.794;2023-08-30T07:50:34;15.00;99.90
27759;DHT22;15148;48.972;12.794;2023-08-30T07:55:37;15.20;99.90
27759;DHT22;15148;48.972;12.794;2023-08-30T08:00:39;15.40;99.90
27759;DHT22;15148;48.972;12.794;2023-08-30T08:05:41;15.70;99.90
27759;DHT22;15148;48.972;12.794;2023-08-30T08:10:43;15.90;99.90
27759;DHT22;15148;48.972;12.794;2023-08-30T08:15:45;15.90;99.90
27759;DHT22;15148;48.972;12.794;2023-08-30T08:20:47;15.70;99.90
27759;DHT22;15148;48.972;12.794;2023-08-30T08:25:48;15.90;99.90
27759;DHT22;15148;48.972;12.794;2023-08-30T08:30:50;16.00;99.90
27759;DHT22;15148;48.972;12.794;2023-08-30T08:35:53;16.10;99.90
27759;DHT22;15148;48.972;12.794;2023-08-30T08:41:02;16.20;99.90
27759;DHT22;15148;48.972;12.794;2023-08-30T08:46:06;16.10;99.90
27759;DHT22;15148;48.972;12.794;2023-08-30T08:51:09;16.10;99.90
27759;DHT22;15148;48.972;12.794;2023-08-30T08:56:12;16.10;99.90
27759;DHT22;15148;48.972;12.794;2023-08-30T09:01:14;16.00;99.90
27759;DHT22;15148;48.972;12.794;2023-08-30T09:06:34;16.20;99.90
27759;DHT22;15148;48.972;12.794;2023-08-30T09:11:36;16.50;99.90
27759;DHT22;15148;48.972;12.794;2023-08-30T09:16:42;16.70;99.90
27759;DHT22;15148;48.972;12.794;2023-08-30T09:21:54;16.70;99.90
27759;DHT22;15148;48.972;12.794;2023-08-30T09:26:56;16.70;99.90
27759;DHT22;15148;48.972;12.794;2023-08-30T09:31:58;16.80;99.90
27759;DHT22;15148;48.972;12.794;2023-08-30T09:37:00;16.60;99.90
27759;DHT22;15148;48.972;12.794;2023-08-30T09:42:07;16.80;99.90
27759;DHT22;15148;48.972;12.794;2023-08-30T09:47:09;16.80;99.90
27759;DHT22;15148;48.972;12.794;2023-08-30T09:52:14;16.90;99.90
27759;DHT22;15148;48.972;12.794;2023-08-30T09:57:17;17.10;99.90
27759;DHT22;15148;48.972;12.794;2023-08-30T10:02:21;17.30;99.90
27759;DHT22;15148;48.972;12.794;2023-08-30T10:12:26;17.40;99.90
27759;DHT22;15148;48.972;12.794;2023-08-30T10:17:32;17.70;99.90
27759;DHT22;15148;48.972;12.794;2023-08-30T10:22:37;17.70;99.90
27759;DHT22;15148;48.972;12.794;2023-08-30T10:27:43;17.60;99.90
27759;DHT22;15148;48.972;12.794;2023-08-30T10:32:46;17.40;99.90
27759;DHT22;15148;48.972;12.794;2023-08-30T10:37:56;17.10;99.90
27759;DHT22;15148;48.972;12.794;2023-08-30T10:43:02;16.90;99.90
27759;DHT22;15148;48.972;12.794;2023-08-30T10:48:05;17.20;99.90
27759;DHT22;15148;48.972;12.794;2023-08-30T10:53:13;17.60;99.90
27759;DHT22;15148;48.972;12.794;2023-08-30T10:58:16;17.70;99.90
27759;DHT22;15148;48.972;12.794;2023-08-30T11:03:19;17.40;99.90
27759;DHT22;15148;48.972;12.794;2023-08-30T11:08:21;17.50;99.90
27759;DHT22;15148;48.972;12.794;2023-08-30T11:13:23;17.80;99.90
27759;DHT22;15148;48.972;12.794;2023-08-30T11:18:26;17.90;99.90
27759;DHT22;15148;48.972;12.794;2023-08-30T11:23:29;17.90;99.90
27759;DHT22;15148;48.972;12.794;2023-08-30T11:28:31;17.70;99.90
27759;DHT22;15148;48.972;12.794;2023-08-30T11:33:33;17.40;99.90
27759;DHT22;15148;48.972;12.794;2023-08-30T11:38:37;17.30;99.90
27759;DHT22;15148;48.972;12.794;2023-08-30T11:43:40;17.20;99.90
27759;DHT22;15148;48.972;12.794;2023-08-30T11:48:42;17.10;99.90
27759;DHT22;15148;48.972;12.794;2023-08-30T11:53:46;16.90;99.90
27759;DHT22;15148;48.972;12.794;2023-08-30T11:58:48;16.80;99.90
27759;DHT22;15148;48.972;12.794;2023-08-30T12:03:50;16.70;99.90
27759;DHT22;15148;48.972;12.794;2023-08-30T12:08:57;16.60;99.90
27759;DHT22;15148;48.972;12.794;2023-08-30T12:14:04;16.60;99.90
27759;DHT22;15148;48.972;12.794;2023-08-30T12:19:12;16.80;99.90
27759;DHT22;15148;48.972;12.794;2023-08-30T12:24:15;17.00;99.90
27759;DHT22;15148;48.972;12.794;2023-08-30T12:29:17;17.20;99.90
27759;DHT22;15148;48.972;12.794;2023-08-30T12:34:19;17.20;99.90
27759;DHT22;15148;48.972;12.794;2023-08-30T12:39:21;17.10;99.90
27759;DHT22;15148;48.972;12.794;2023-08-30T12:44:23;17.10;99.90
27759;DHT22;15148;48.972;12.794;2023-08-30T12:49:25;17.00;99.90
27759;DHT22;15148;48.972;12.794;2023-08-30T12:54:27;16.90;99.90
27759;DHT22;15148;48.972;12.794;2023-08-30T12:59:29;17.00;99.90
27759;DHT22;15148;48.972;12.794;2023-08-30T13:04:31;17.10;99.90
27759;DHT22;15148;48.972;12.794;2023-08-30T13:09:33;17.20;99.90
27759;DHT22;15148;48.972;12.794;2023-08-30T13:14:35;17.30;99.90
27759;DHT22;15148;48.972;12.794;2023-08-30T13:19:37;17.50;99.90
27759;DHT22;15148;48.972;12.794;2023-08-30T13:24:39;17.50;99.90
27759;DHT22;15148;48.972;12.794;2023-08-30T13:29:41;17.40;99.90
27759;DHT22;15148;48.972;12.794;2023-08-30T13:34:43;17.30;99.90
27759;DHT22;15148;48.972;12.794;2023-08-30T13:39:49;17.10;99.90
27759;DHT22;15148;48.972;12.794;2023-08-30T13:44:51;17.00;99.90
27759;DHT22;15148;48.972;12.794;2023-08-30T13:49:53;17.00;99.90
27759;DHT22;15148;48.972;12.794;2023-08-30T13:54:55;17.10;99.90
27759;DHT22;15148;48.972;12.794;2023-08-30T13:59:58;17.00;99.90
27759;DHT22;15148;48.972;12.794;2023-08-30T14:05:01;17.10;99.90
27759;DHT22;15148;48.972;12.794;2023-08-30T14:10:03;17.10;99.90
27759;DHT22;15148;48.972;12.794;2023-08-30T14:15:05;17.10;99.90
27759;DHT22;15148;48.972;12.794;2023-08-30T14:20:09;17.20;99.90
27759;DHT22;15148;48.972;12.794;2023-08-30T14:25:12;17.20;99.90
27759;DHT22;15148;48.972;12.794;2023-08-30T14:30:15;17.10;99.90
27759;DHT22;15148;48.972;12.794;2023-08-30T14:35:17;17.00;99.90
27759;DHT22;15148;48.972;12.794;2023-08-30T14:40:23;16.80;99.90
27759;DHT22;15148;48.972;12.794;2023-08-30T14:45:25;16.80;99.90
27759;DHT22;15148;48.972;12.794;2023-08-30T14:50:27;16.60;99.90
27759;DHT22;15148;48.972;12.794;2023-08-30T14:55:29;16.50;99.90
27759;DHT22;15148;48.972;12.794;2023-08-30T15:00:31;16.50;99.90
27759;DHT22;15148;48.972;12.794;2023-08-30T15:05:34;16.40;99.90
27759;DHT22;15148;48.972;12.794;2023-08-30T15:10:36;16.20;99.90
27759;DHT22;15148;48.972;12.794;2023-08-30T15:15:39;16.10;99.90
27759;DHT22;15148;48.972;12.794;2023-08-30T15:20:41;16.00;99.90
27759;DHT22;15148;48.972;12.794;2023-08-30T15:25:47;15.90;99.90
27759;DHT22;15148;48.972;12.794;2023-08-30T15:30:49;16.00;99.90
27759;DHT22;15148;48.972;12.794;2023-08-30T15:35:52;16.10;99.90
27759;DHT22;15148;48.972;12.794;2023-08-30T15:40:55;16.10;99.90
27759;DHT22;15148;48.972;12.794;2023-08-30T15:45:57;16.00;99.90
27759;DHT22;15148;48.972;12.794;2023-08-30T15:50:59;16.00;99.90
27759;DHT22;15148;48.972;12.794;2023-08-30T15:56:01;15.90;99.90
27759;DHT22;15148;48.972;12.794;2023-08-30T16:01:04;15.90;99.90
27759;DHT22;15148;48.972;12.794;2023-08-30T16:06:07;15.80;99.90
27759;DHT22;15148;48.972;12.794;2023-08-30T16:11:09;15.80;99.90
27759;DHT22;15148;48.972;12.794;2023-08-30T16:16:11;15.70;99.90
27759;DHT22;15148;48.972;12.794;2023-08-30T16:21:12;15.60;99.90
27759;DHT22;15148;48.972;12.794;2023-08-30T16:26:14;15.60;99.90
27759;DHT22;15148;48.972;12.794;2023-08-30T16:31:16;15.50;99.90
27759;DHT22;15148;48.972;12.794;2023-08-30T16:36:19;15.40;99.90
27759;DHT22;15148;48.972;12.794;2023-08-30T16:41:21;15.40;99.90
27759;DHT22;15148;48.972;12.794;2023-08-30T16:46:23;15.30;99.90
27759;DHT22;15148;48.972;12.794;2023-08-30T16:51:25;15.30;99.90
27759;DHT22;15148;48.972;12.794;2023-08-30T16:56:27;15.20;99.90
27759;DHT22;15148;48.972;12.794;2023-08-30T17:01:29;15.10;99.90
27759;DHT22;15148;48.972;12.794;2023-08-30T17:06:31;15.00;99.90
27759;DHT22;15148;48.972;12.794;2023-08-30T17:11:33;15.00;99.90
27759;DHT22;15148;48.972;12.794;2023-08-30T17:16:35;14.90;99.90
27759;DHT22;15148;48.972;12.794;2023-08-30T17:21:37;14.90;99.90
27759;DHT22;15148;48.972;12.794;2023-08-30T17:26:42;14.80;99.90
27759;DHT22;15148;48.972;12.794;2023-08-30T17:31:46;14.60;99.90
27759;DHT22;15148;48.972;12.794;2023-08-30T17:36:48;14.60;99.90
27759;DHT22;15148;48.972;12.794;2023-08-30T17:41:55;14.60;99.90
27759;DHT22;15148;48.972;12.794;2023-08-30T17:46:57;14.50;99.90
27759;DHT22;15148;48.972;12.794;2023-08-30T17:51:59;14.50;99.90
27759;DHT22;15148;48.972;12.794;2023-08-30T17:57:01;14.40;99.90
27759;DHT22;15148;48.972;12.794;2023-08-30T18:02:04;14.30;99.90
27759;DHT22;15148;48.972;12.794;2023-08-30T18:07:07;14.30;99.90
27759;DHT22;15148;48.972;12.794;2023-08-30T18:12:09;14.20;99.90
27759;DHT22;15148;48.972;12.794;2023-08-30T18:17:11;14.20;99.90
27759;DHT22;15148;48.972;12.794;2023-08-30T18:22:13;14.10;99.90
27759;DHT22;15148;48.972;12.794;2023-08-30T18:27:15;14.00;99.90
27759;DHT22;15148;48.972;12.794;2023-08-30T18:32:17;13.90;99.90
27759;DHT22;15148;48.972;12.794;2023-08-30T18:37:19;13.80;99.90
27759;DHT22;15148;48.972;12.794;2023-08-30T18:42:21;13.90;99.90
27759;DHT22;15148;48.972;12.794;2023-08-30T18:47:23;13.80;99.90
27759;DHT22;15148;48.972;12.794;2023-08-30T18:52:25;13.70;99.90
27759;DHT22;15148;48.972;12.794;2023-08-30T18:57:26;13.70;99.90
27759;DHT22;15148;48.972;12.794;2023-08-30T19:02:28;13.60;99.90
27759;DHT22;15148;48.972;12.794;2023-08-30T19:07:30;13.60;99.90
27759;DHT22;15148;48.972;12.794;2023-08-30T19:12:32;13.60;99.90
27759;DHT22;15148;48.972;12.794;2023-08-30T19:17:34;13.60;99.90
27759;DHT22;15148;48.972;12.794;2023-08-30T19:22:36;13.60;99.90
27759;DHT22;15148;48.972;12.794;2023-08-30T19:27:41;13.60;99.90
27759;DHT22;15148;48.972;12.794;2023-08-30T19:32:43;13.50;99.90
27759;DHT22;15148;48.972;12.794;2023-08-30T19:37:46;13.50;99.90
27759;DHT22;15148;48.972;12.794;2023-08-30T19:42:49;13.40;99.90
27759;DHT22;15148;48.972;12.794;2023-08-30T19:47:51;13.40;99.90
27759;DHT22;15148;48.972;12.794;2023-08-30T19:52:53;13.40;99.90
27759;DHT22;15148;48.972;12.794;2023-08-30T19:57:55;13.40;99.90
27759;DHT22;15148;48.972;12.794;2023-08-30T20:02:57;13.40;99.90
27759;DHT22;15148;48.972;12.794;2023-08-30T20:08:00;13.40;99.90
27759;DHT22;15148;48.972;12.794;2023-08-30T20:13:01;13.40;99.90
27759;DHT22;15148;48.972;12.794;2023-08-30T20:18:04;13.40;99.90
27759;DHT22;15148;48.972;12.794;2023-08-30T20:23:08;13.40;99.90
27759;DHT22;15148;48.972;12.794;2023-08-30T20:28:10;13.40;99.90
27759;DHT22;15148;48.972;12.794;2023-08-30T20:33:12;13.30;99.90
27759;DHT22;15148;48.972;12.794;2023-08-30T20:38:14;13.30;99.90
27759;DHT22;15148;48.972;12.794;2023-08-30T20:43:16;13.10;99.90
27759;DHT22;15148;48.972;12.794;2023-08-30T20:48:19;13.20;99.90
27759;DHT22;15148;48.972;12.794;2023-08-30T20:53:21;13.10;99.90
27759;DHT22;15148;48.972;12.794;2023-08-30T20:58:22;13.10;99.90
27759;DHT22;15148;48.972;12.794;2023-08-30T21:03:24;13.00;99.90
27759;DHT22;15148;48.972;12.794;2023-08-30T21:08:26;13.10;99.90
27759;DHT22;15148;48.972;12.794;2023-08-30T21:13:29;13.10;99.90
27759;DHT22;15148;48.972;12.794;2023-08-30T21:18:31;13.20;99.90
27759;DHT22;15148;48.972;12.794;2023-08-30T21:23:33;13.20;99.90
27759;DHT22;15148;48.972;12.794;2023-08-30T21:28:35;13.20;99.90
27759;DHT22;15148;48.972;12.794;2023-08-30T21:33:37;13.20;99.90
27759;DHT22;15148;48.972;12.794;2023-08-30T21:38:39;13.30;99.90
27759;DHT22;15148;48.972;12.794;2023-08-30T21:43:41;13.30;99.90
27759;DHT22;15148;48.972;12.794;2023-08-30T21:48:43;13.40;99.90
27759;DHT22;15148;48.972;12.794;2023-08-30T21:53:45;13.40;99.90
27759;DHT22;15148;48.972;12.794;2023-08-30T21:58:47;13.40;99.90
27759;DHT22;15148;48.972;12.794;2023-08-30T22:03:51;13.40;99.90
27759;DHT22;15148;48.972;12.794;2023-08-30T22:08:53;13.40;99.90
27759;DHT22;15148;48.972;12.794;2023-08-30T22:13:55;13.40;99.90
27759;DHT22;15148;48.972;12.794;2023-08-30T22:18:57;13.50;99.90
27759;DHT22;15148;48.972;12.794;2023-08-30T22:24:00;13.40;99.90
27759;DHT22;15148;48.972;12.794;2023-08-30T22:29:05;13.50;99.90
27759;DHT22;15148;48.972;12.794;2023-08-30T22:34:07;13.40;99.90
27759;DHT22;15148;48.972;12.794;2023-08-30T22:39:09;13.50;99.90
27759;DHT22;15148;48.972;12.794;2023-08-30T22:44:12;13.50;99.90
27759;DHT22;15148;48.972;12.794;2023-08-30T22:49:14;13.50;99.90
27759;DHT22;15148;48.972;12.794;2023-08-30T22:54:16;13.50;99.90
27759;DHT22;15148;48.972;12.794;2023-08-30T22:59:20;13.50;99.90
27759;DHT22;15148;48.972;12.794;2023-08-30T23:04:22;13.50;99.90
27759;DHT22;15148;48.972;12.794;2023-08-30T23:09:25;13.50;99.90
27759;DHT22;15148;48.972;12.794;2023-08-30T23:14:27;13.40;99.90
27759;DHT22;15148;48.972;12.794;2023-08-30T23:19:29;13.40;99.90
27759;DHT22;15148;48.972;12.794;2023-08-30T23:24:31;13.50;99.90
27759;DHT22;15148;48.972;12.794;2023-08-30T23:29:33;13.50;99.90
27759;DHT22;15148;48.972;12.794;2023-08-30T23:34:35;13.50;99.90
27759;DHT22;15148;48.972;12.794;2023-08-30T23:39:37;13.50;99.90
27759;DHT22;15148;48.972;12.794;2023-08-30T23:44:39;13.40;99.90
27759;DHT22;15148;48.972;12.794;2023-08-30T23:49:41;13.30;99.90
27759;DHT22;15148;48.972;12.794;2023-08-30T23:54:43;13.30;99.90
27759;DHT22;15148;48.972;12.794;2023-08-30T23:59:45;13.30;99.90
